sensor_id;sensor_type;location;lat;lon;timestamp;pressure;altitude;pressure_sealevel;temperature;humidity
83037;BME280;73029;43.592;1.458;2023-12-20T00:01:17;101020.50;;;8.95;66.27
83037;BME280;73029;43.592;1.458;2023-12-20T00:03:42;101002.91;;;8.89;67.01
83037;BME280;73029;43.592;1.458;2023-12-20T00:06:07;101003.78;;;8.93;65.98
83037;BME280;73029;43.592;1.458;2023-12-20T00:08:33;101009.94;;;8.94;66.47
83037;BME280;73029;43.592;1.458;2023-12-20T00:10:58;100995.00;;;8.93;66.24
83037;BME280;73029;43.592;1.458;2023-12-20T00:13:24;101003.81;;;8.96;66.23
83037;BME280;73029;43.592;1.458;2023-12-20T00:15:49;100993.25;;;8.90;66.55
83037;BME280;73029;43.592;1.458;2023-12-20T00:18:14;100995.00;;;8.93;65.86
83037;BME280;73029;43.592;1.458;2023-12-20T00:20:43;100990.59;;;8.88;66.44
83037;BME280;73029;43.592;1.458;2023-12-20T00:23:08;100995.00;;;8.94;66.44
83037;BME280;73029;43.592;1.458;2023-12-20T00:25:34;100983.56;;;8.92;67.06
83037;BME280;73029;43.592;1.458;2023-12-20T00:28:00;100983.59;;;8.95;66.42
83037;BME280;73029;43.592;1.458;2023-12-20T00:30:26;100955.44;;;8.91;67.03
83037;BME280;73029;43.592;1.458;2023-12-20T00:32:51;100964.25;;;8.99;67.20
83037;BME280;73029;43.592;1.458;2023-12-20T00:35:17;100953.72;;;8.95;67.32
83037;BME280;73029;43.592;1.458;2023-12-20T00:37:43;100952.78;;;8.94;67.11
83037;BME280;73029;43.592;1.458;2023-12-20T00:40:09;100948.41;;;8.93;66.52
83037;BME280;73029;43.592;1.458;2023-12-20T00:42:34;100957.22;;;9.06;67.11
83037;BME280;73029;43.592;1.458;2023-12-20T00:45:01;100953.72;;;9.07;66.69
83037;BME280;73029;43.592;1.458;2023-12-20T00:47:26;100939.63;;;9.06;66.94
83037;BME280;73029;43.592;1.458;2023-12-20T00:49:52;100943.19;;;9.13;66.63
83037;BME280;73029;43.592;1.458;2023-12-20T00:52:18;100935.25;;;9.11;66.64
83037;BME280;73029;43.592;1.458;2023-12-20T00:54:43;100944.94;;;9.17;67.56
83037;BME280;73029;43.592;1.458;2023-12-20T00:57:09;100936.16;;;9.16;67.03
83037;BME280;73029;43.592;1.458;2023-12-20T00:59:34;100922.94;;;9.12;66.53
83037;BME280;73029;43.592;1.458;2023-12-20T01:02:00;100926.47;;;9.18;66.27
83037;BME280;73029;43.592;1.458;2023-12-20T01:04:25;100922.94;;;9.16;66.22
83037;BME280;73029;43.592;1.458;2023-12-20T01:06:51;100930.88;;;9.24;66.62
83037;BME280;73029;43.592;1.458;2023-12-20T01:09:17;100930.00;;;9.24;66.23
83037;BME280;73029;43.592;1.458;2023-12-20T01:11:43;100911.53;;;9.17;66.76
83037;BME280;73029;43.592;1.458;2023-12-20T01:14:09;100920.31;;;9.21;66.66
83037;BME280;73029;43.592;1.458;2023-12-20T01:16:34;100910.63;;;9.17;66.40
83037;BME280;73029;43.592;1.458;2023-12-20T01:19:00;100923.84;;;9.20;66.32
83037;BME280;73029;43.592;1.458;2023-12-20T01:21:25;100908.03;;;9.14;67.09
83037;BME280;73029;43.592;1.458;2023-12-20T01:23:50;100902.75;;;9.14;66.67
83037;BME280;73029;43.592;1.458;2023-12-20T01:26:16;100916.78;;;9.19;67.06
83037;BME280;73029;43.592;1.458;2023-12-20T01:28:42;100879.88;;;8.98;66.53
83037;BME280;73029;43.592;1.458;2023-12-20T01:31:08;100904.47;;;9.18;67.01
83037;BME280;73029;43.592;1.458;2023-12-20T01:33:33;100909.78;;;9.23;66.69
83037;BME280;73029;43.592;1.458;2023-12-20T01:35:58;100891.31;;;9.13;66.99
83037;BME280;73029;43.592;1.458;2023-12-20T01:38:24;100908.00;;;9.23;67.43
83037;BME280;73029;43.592;1.458;2023-12-20T01:40:49;100893.94;;;9.18;66.36
83037;BME280;73029;43.592;1.458;2023-12-20T01:43:14;100904.47;;;9.24;66.85
83037;BME280;73029;43.592;1.458;2023-12-20T01:45:43;100887.78;;;9.19;66.44
83037;BME280;73029;43.592;1.458;2023-12-20T01:48:09;100850.84;;;8.99;67.29
83037;BME280;73029;43.592;1.458;2023-12-20T01:50:36;100896.56;;;9.29;67.02
83037;BME280;73029;43.592;1.458;2023-12-20T01:53:03;100877.22;;;9.24;66.55
83037;BME280;73029;43.592;1.458;2023-12-20T01:55:31;100884.25;;;9.31;67.03
83037;BME280;73029;43.592;1.458;2023-12-20T01:57:57;100877.25;;;9.27;67.09
83037;BME280;73029;43.592;1.458;2023-12-20T02:00:25;100881.63;;;9.35;67.51
83037;BME280;73029;43.592;1.458;2023-12-20T02:02:53;100881.63;;;9.37;66.66
83037;BME280;73029;43.592;1.458;2023-12-20T02:05:21;100878.09;;;9.39;66.77
83037;BME280;73029;43.592;1.458;2023-12-20T02:07:47;100871.06;;;9.40;67.04
83037;BME280;73029;43.592;1.458;2023-12-20T02:10:13;100863.16;;;9.40;66.74
83037;BME280;73029;43.592;1.458;2023-12-20T02:12:38;100864.91;;;9.41;67.30
83037;BME280;73029;43.592;1.458;2023-12-20T02:15:04;100860.50;;;9.41;66.46
83037;BME280;73029;43.592;1.458;2023-12-20T02:17:31;100865.78;;;9.46;66.61
83037;BME280;73029;43.592;1.458;2023-12-20T02:19:56;100825.34;;;9.29;66.94
83037;BME280;73029;43.592;1.458;2023-12-20T02:22:22;100852.56;;;9.49;66.57
83037;BME280;73029;43.592;1.458;2023-12-20T02:24:47;100826.19;;;9.41;66.59
83037;BME280;73029;43.592;1.458;2023-12-20T02:27:12;100831.50;;;9.44;66.24
83037;BME280;73029;43.592;1.458;2023-12-20T02:29:40;100817.41;;;9.44;66.75
83037;BME280;73029;43.592;1.458;2023-12-20T02:32:05;100812.13;;;9.44;66.29
83037;BME280;73029;43.592;1.458;2023-12-20T02:34:31;100829.69;;;9.48;66.29
83037;BME280;73029;43.592;1.458;2023-12-20T02:36:56;100825.34;;;9.44;67.10
83037;BME280;73029;43.592;1.458;2023-12-20T02:39:22;100834.09;;;9.49;66.11
83037;BME280;73029;43.592;1.458;2023-12-20T02:41:48;100833.22;;;9.47;67.05
83037;BME280;73029;43.592;1.458;2023-12-20T02:44:13;100827.06;;;9.48;66.68
83037;BME280;73029;43.592;1.458;2023-12-20T02:46:39;100831.47;;;9.46;66.54
83037;BME280;73029;43.592;1.458;2023-12-20T02:49:05;100833.22;;;9.47;66.95
83037;BME280;73029;43.592;1.458;2023-12-20T02:51:31;100807.72;;;9.37;67.00
83037;BME280;73029;43.592;1.458;2023-12-20T02:53:56;100826.19;;;9.46;66.40
83037;BME280;73029;43.592;1.458;2023-12-20T02:56:21;100812.13;;;9.46;66.72
83037;BME280;73029;43.592;1.458;2023-12-20T02:58:47;100802.44;;;9.43;66.56
83037;BME280;73029;43.592;1.458;2023-12-20T03:01:12;100804.19;;;9.53;66.52
83037;BME280;73029;43.592;1.458;2023-12-20T03:03:37;100775.16;;;9.47;67.40
83037;BME280;73029;43.592;1.458;2023-12-20T03:06:03;100791.84;;;9.60;67.10
83037;BME280;73029;43.592;1.458;2023-12-20T03:08:28;100771.66;;;9.47;67.19
83037;BME280;73029;43.592;1.458;2023-12-20T03:10:54;100789.19;;;9.64;67.11
83037;BME280;73029;43.592;1.458;2023-12-20T03:13:19;100774.25;;;9.65;66.90
83037;BME280;73029;43.592;1.458;2023-12-20T03:15:45;100761.91;;;9.65;67.66
83037;BME280;73029;43.592;1.458;2023-12-20T03:18:11;100761.91;;;9.70;67.86
83037;BME280;73029;43.592;1.458;2023-12-20T03:20:36;100764.53;;;9.68;67.71
83037;BME280;73029;43.592;1.458;2023-12-20T03:23:02;100761.91;;;9.65;68.22
83037;BME280;73029;43.592;1.458;2023-12-20T03:25:27;100775.97;;;9.67;68.03
83037;BME280;73029;43.592;1.458;2023-12-20T03:27:52;100767.19;;;9.65;68.35
83037;BME280;73029;43.592;1.458;2023-12-20T03:30:18;100771.59;;;9.66;68.33
83037;BME280;73029;43.592;1.458;2023-12-20T03:32:44;100741.75;;;9.51;69.26
83037;BME280;73029;43.592;1.458;2023-12-20T03:35:09;100743.47;;;9.55;69.19
83037;BME280;73029;43.592;1.458;2023-12-20T03:37:35;100767.19;;;9.67;68.97
83037;BME280;73029;43.592;1.458;2023-12-20T03:40:01;100762.81;;;9.58;70.20
83037;BME280;73029;43.592;1.458;2023-12-20T03:42:26;100763.72;;;9.53;70.17
83037;BME280;73029;43.592;1.458;2023-12-20T03:44:52;100763.72;;;9.53;69.72
83037;BME280;73029;43.592;1.458;2023-12-20T03:47:17;100762.84;;;9.51;70.12
83037;BME280;73029;43.592;1.458;2023-12-20T03:49:43;100755.81;;;9.42;70.74
83037;BME280;73029;43.592;1.458;2023-12-20T03:52:08;100718.97;;;9.22;70.21
83037;BME280;73029;43.592;1.458;2023-12-20T03:54:35;100764.63;;;9.46;71.52
83037;BME280;73029;43.592;1.458;2023-12-20T03:57:01;100760.25;;;9.40;71.15
83037;BME280;73029;43.592;1.458;2023-12-20T03:59:26;100754.06;;;9.41;71.33
83037;BME280;73029;43.592;1.458;2023-12-20T04:01:51;100730.34;;;9.30;72.04
83037;BME280;73029;43.592;1.458;2023-12-20T04:04:17;100754.09;;;9.44;71.33
83037;BME280;73029;43.592;1.458;2023-12-20T04:06:42;100732.09;;;9.36;72.24
83037;BME280;73029;43.592;1.458;2023-12-20T04:09:08;100742.66;;;9.39;71.89
83037;BME280;73029;43.592;1.458;2023-12-20T04:11:37;100730.34;;;9.30;71.78
83037;BME280;73029;43.592;1.458;2023-12-20T04:14:02;100735.63;;;9.30;72.67
83037;BME280;73029;43.592;1.458;2023-12-20T04:16:30;100731.22;;;9.31;72.78
83037;BME280;73029;43.592;1.458;2023-12-20T04:18:55;100736.50;;;9.34;72.52
83037;BME280;73029;43.592;1.458;2023-12-20T04:21:21;100723.31;;;9.34;73.19
83037;BME280;73029;43.592;1.458;2023-12-20T04:23:46;100707.53;;;9.23;73.02
83037;BME280;73029;43.592;1.458;2023-12-20T04:26:11;100720.69;;;9.29;72.42
83037;BME280;73029;43.592;1.458;2023-12-20T04:28:37;100709.28;;;9.24;73.04
83037;BME280;73029;43.592;1.458;2023-12-20T04:31:02;100720.69;;;9.31;73.44
83037;BME280;73029;43.592;1.458;2023-12-20T04:33:28;100719.81;;;9.29;73.08
83037;BME280;73029;43.592;1.458;2023-12-20T04:35:53;100718.06;;;9.28;73.24
83037;BME280;73029;43.592;1.458;2023-12-20T04:38:19;100710.19;;;9.20;74.00
83037;BME280;73029;43.592;1.458;2023-12-20T04:40:44;100705.75;;;9.27;74.24
83037;BME280;73029;43.592;1.458;2023-12-20T04:43:09;100708.41;;;9.16;73.85
83037;BME280;73029;43.592;1.458;2023-12-20T04:45:35;100717.22;;;9.20;74.64
83037;BME280;73029;43.592;1.458;2023-12-20T04:48:02;100718.09;;;9.20;74.55
83037;BME280;73029;43.592;1.458;2023-12-20T04:50:28;100705.78;;;9.16;74.46
83037;BME280;73029;43.592;1.458;2023-12-20T04:52:53;100713.69;;;9.17;74.82
83037;BME280;73029;43.592;1.458;2023-12-20T04:55:19;100709.28;;;9.16;75.15
83037;BME280;73029;43.592;1.458;2023-12-20T04:57:45;100693.47;;;9.12;74.90
83037;BME280;73029;43.592;1.458;2023-12-20T05:00:11;100697.84;;;9.17;75.16
83037;BME280;73029;43.592;1.458;2023-12-20T05:02:37;100690.84;;;9.16;75.24
83037;BME280;73029;43.592;1.458;2023-12-20T05:05:03;100683.81;;;9.12;75.55
83037;BME280;73029;43.592;1.458;2023-12-20T05:07:28;100691.69;;;9.18;76.18
83037;BME280;73029;43.592;1.458;2023-12-20T05:09:54;100680.31;;;9.13;75.53
83037;BME280;73029;43.592;1.458;2023-12-20T05:12:19;100697.88;;;9.21;75.99
83037;BME280;73029;43.592;1.458;2023-12-20T05:14:45;100690.84;;;9.15;75.37
83037;BME280;73029;43.592;1.458;2023-12-20T05:17:11;100703.16;;;9.21;75.34
83037;BME280;73029;43.592;1.458;2023-12-20T05:19:36;100695.22;;;9.17;76.13
83037;BME280;73029;43.592;1.458;2023-12-20T05:22:02;100711.94;;;9.26;75.77
83037;BME280;73029;43.592;1.458;2023-12-20T05:24:28;100654.88;;;8.96;76.94
83037;BME280;73029;43.592;1.458;2023-12-20T05:26:53;100707.53;;;9.26;76.76
83037;BME280;73029;43.592;1.458;2023-12-20T05:29:19;100691.72;;;9.20;76.59
83037;BME280;73029;43.592;1.458;2023-12-20T05:31:44;100712.75;;;9.31;77.08
83037;BME280;73029;43.592;1.458;2023-12-20T05:34:10;100721.56;;;9.34;76.62
83037;BME280;73029;43.592;1.458;2023-12-20T05:36:36;100719.78;;;9.39;76.60
83037;BME280;73029;43.592;1.458;2023-12-20T05:39:01;100722.41;;;9.41;77.51
83037;BME280;73029;43.592;1.458;2023-12-20T05:41:28;100718.91;;;9.40;77.37
83037;BME280;73029;43.592;1.458;2023-12-20T05:43:54;100677.66;;;9.16;77.42
83037;BME280;73029;43.592;1.458;2023-12-20T05:46:19;100728.56;;;9.46;77.79
83037;BME280;73029;43.592;1.458;2023-12-20T05:48:46;100722.38;;;9.47;78.32
83037;BME280;73029;43.592;1.458;2023-12-20T05:51:12;100732.03;;;9.56;78.08
83037;BME280;73029;43.592;1.458;2023-12-20T05:53:38;100743.47;;;9.59;78.03
83037;BME280;73029;43.592;1.458;2023-12-20T05:56:04;100728.56;;;9.51;77.94
83037;BME280;73029;43.592;1.458;2023-12-20T05:58:29;100740.81;;;9.61;78.65
83037;BME280;73029;43.592;1.458;2023-12-20T06:00:54;100738.16;;;9.62;77.91
83037;BME280;73029;43.592;1.458;2023-12-20T06:03:20;100739.97;;;9.57;78.46
83037;BME280;73029;43.592;1.458;2023-12-20T06:05:45;100760.13;;;9.67;77.82
83037;BME280;73029;43.592;1.458;2023-12-20T06:08:11;100752.25;;;9.63;78.68
83037;BME280;73029;43.592;1.458;2023-12-20T06:10:36;100762.81;;;9.63;78.59
83037;BME280;73029;43.592;1.458;2023-12-20T06:13:01;100736.44;;;9.52;78.57
83037;BME280;73029;43.592;1.458;2023-12-20T06:15:28;100758.41;;;9.65;79.12
83037;BME280;73029;43.592;1.458;2023-12-20T06:17:53;100770.72;;;9.69;78.74
83037;BME280;73029;43.592;1.458;2023-12-20T06:20:19;100752.25;;;9.64;78.61
83037;BME280;73029;43.592;1.458;2023-12-20T06:22:44;100774.19;;;9.74;78.88
83037;BME280;73029;43.592;1.458;2023-12-20T06:25:10;100782.97;;;9.75;78.72
83037;BME280;73029;43.592;1.458;2023-12-20T06:27:35;100782.97;;;9.75;79.32
83037;BME280;73029;43.592;1.458;2023-12-20T06:30:00;100773.34;;;9.67;78.93
83037;BME280;73029;43.592;1.458;2023-12-20T06:32:26;100790.91;;;9.75;79.67
83037;BME280;73029;43.592;1.458;2023-12-20T06:34:51;100790.91;;;9.75;79.17
83037;BME280;73029;43.592;1.458;2023-12-20T06:37:16;100776.88;;;9.66;79.98
83037;BME280;73029;43.592;1.458;2023-12-20T06:39:42;100807.63;;;9.74;79.77
83037;BME280;73029;43.592;1.458;2023-12-20T06:42:07;100795.34;;;9.71;79.61
83037;BME280;73029;43.592;1.458;2023-12-20T06:44:33;100808.50;;;9.77;80.11
83037;BME280;73029;43.592;1.458;2023-12-20T06:46:58;100799.69;;;9.80;80.28
83037;BME280;73029;43.592;1.458;2023-12-20T06:49:23;100813.78;;;9.79;79.66
83037;BME280;73029;43.592;1.458;2023-12-20T06:51:49;100825.22;;;9.84;79.87
83037;BME280;73029;43.592;1.458;2023-12-20T06:54:14;100823.47;;;9.83;80.43
83037;BME280;73029;43.592;1.458;2023-12-20T06:56:39;100821.69;;;9.80;80.21
83037;BME280;73029;43.592;1.458;2023-12-20T06:59:06;100829.59;;;9.86;80.31
83037;BME280;73029;43.592;1.458;2023-12-20T07:01:31;100836.63;;;9.86;80.66
83037;BME280;73029;43.592;1.458;2023-12-20T07:03:57;100839.25;;;9.87;80.78
83037;BME280;73029;43.592;1.458;2023-12-20T07:06:22;100831.38;;;9.80;81.13
83037;BME280;73029;43.592;1.458;2023-12-20T07:08:48;100846.31;;;9.88;80.91
83037;BME280;73029;43.592;1.458;2023-12-20T07:11:13;100841.94;;;9.80;81.17
83037;BME280;73029;43.592;1.458;2023-12-20T07:13:39;100845.47;;;9.82;80.71
83037;BME280;73029;43.592;1.458;2023-12-20T07:16:04;100852.47;;;9.95;80.90
83037;BME280;73029;43.592;1.458;2023-12-20T07:18:30;100870.94;;;9.96;80.29
83037;BME280;73029;43.592;1.458;2023-12-20T07:20:55;100863.94;;;9.89;80.27
83037;BME280;73029;43.592;1.458;2023-12-20T07:23:21;100885.03;;;9.94;80.55
83037;BME280;73029;43.592;1.458;2023-12-20T07:25:46;100882.41;;;9.95;80.46
83037;BME280;73029;43.592;1.458;2023-12-20T07:28:12;100887.69;;;9.94;79.59
83037;BME280;73029;43.592;1.458;2023-12-20T07:30:37;100903.53;;;10.00;79.50
83037;BME280;73029;43.592;1.458;2023-12-20T07:33:03;100914.09;;;10.00;79.30
83037;BME280;73029;43.592;1.458;2023-12-20T07:35:28;100900.00;;;9.92;78.66
83037;BME280;73029;43.592;1.458;2023-12-20T07:37:54;100914.94;;;9.99;79.08
83037;BME280;73029;43.592;1.458;2023-12-20T07:40:19;100920.22;;;9.99;78.62
83037;BME280;73029;43.592;1.458;2023-12-20T07:42:45;100914.09;;;9.91;78.42
83037;BME280;73029;43.592;1.458;2023-12-20T07:45:10;100931.69;;;9.96;79.27
83037;BME280;73029;43.592;1.458;2023-12-20T07:47:38;100938.72;;;9.97;78.80
83037;BME280;73029;43.592;1.458;2023-12-20T07:50:04;100944.00;;;9.99;78.54
83037;BME280;73029;43.592;1.458;2023-12-20T07:52:29;100942.25;;;9.92;78.57
83037;BME280;73029;43.592;1.458;2023-12-20T07:54:55;100958.06;;;10.04;78.16
83037;BME280;73029;43.592;1.458;2023-12-20T07:57:21;100959.81;;;10.05;77.35
83037;BME280;73029;43.592;1.458;2023-12-20T07:59:46;100967.78;;;10.02;78.03
83037;BME280;73029;43.592;1.458;2023-12-20T08:02:12;100971.28;;;9.99;77.10
83037;BME280;73029;43.592;1.458;2023-12-20T08:04:37;100972.22;;;9.88;77.54
83037;BME280;73029;43.592;1.458;2023-12-20T08:07:03;100988.91;;;9.99;77.75
83037;BME280;73029;43.592;1.458;2023-12-20T08:09:29;100996.84;;;9.96;77.39
83037;BME280;73029;43.592;1.458;2023-12-20T08:11:55;100999.47;;;9.93;77.55
83037;BME280;73029;43.592;1.458;2023-12-20T08:14:20;100996.84;;;9.84;76.62
83037;BME280;73029;43.592;1.458;2023-12-20T08:16:45;101015.31;;;9.91;77.16
83037;BME280;73029;43.592;1.458;2023-12-20T08:19:11;101017.97;;;9.84;76.98
83037;BME280;73029;43.592;1.458;2023-12-20T08:21:36;101017.09;;;9.85;76.40
83037;BME280;73029;43.592;1.458;2023-12-20T08:24:02;101021.50;;;9.78;76.63
83037;BME280;73029;43.592;1.458;2023-12-20T08:26:28;101030.31;;;9.82;76.62
83037;BME280;73029;43.592;1.458;2023-12-20T08:28:53;101028.53;;;9.78;76.68
83037;BME280;73029;43.592;1.458;2023-12-20T08:31:19;101036.47;;;9.79;76.20
83037;BME280;73029;43.592;1.458;2023-12-20T08:33:45;101034.72;;;9.69;76.08
83037;BME280;73029;43.592;1.458;2023-12-20T08:36:11;101054.06;;;9.77;76.39
83037;BME280;73029;43.592;1.458;2023-12-20T08:38:37;101039.09;;;9.68;76.32
83037;BME280;73029;43.592;1.458;2023-12-20T08:41:03;101065.50;;;9.71;76.51
83037;BME280;73029;43.592;1.458;2023-12-20T08:43:31;101056.69;;;9.66;76.89
83037;BME280;73029;43.592;1.458;2023-12-20T08:45:56;101083.97;;;9.67;77.16
83037;BME280;73029;43.592;1.458;2023-12-20T08:48:22;101061.94;;;9.48;77.03
83037;BME280;73029;43.592;1.458;2023-12-20T08:50:47;101081.31;;;9.53;76.98
83037;BME280;73029;43.592;1.458;2023-12-20T08:53:15;101104.19;;;9.60;77.23
83037;BME280;73029;43.592;1.458;2023-12-20T08:55:42;101091.00;;;9.59;76.83
83037;BME280;73029;43.592;1.458;2023-12-20T08:58:08;101094.50;;;9.53;77.13
83037;BME280;73029;43.592;1.458;2023-12-20T09:00:34;101100.69;;;9.57;76.34
83037;BME280;73029;43.592;1.458;2023-12-20T09:03:01;101106.84;;;9.57;77.10
83037;BME280;73029;43.592;1.458;2023-12-20T09:05:27;101096.25;;;9.48;76.70
83037;BME280;73029;43.592;1.458;2023-12-20T09:07:52;101112.09;;;9.56;77.11
83037;BME280;73029;43.592;1.458;2023-12-20T09:10:17;101108.59;;;9.54;77.18
83037;BME280;73029;43.592;1.458;2023-12-20T09:12:48;101109.44;;;9.50;76.03
83037;BME280;73029;43.592;1.458;2023-12-20T09:15:17;101099.78;;;9.39;76.50
83037;BME280;73029;43.592;1.458;2023-12-20T09:17:42;101143.81;;;9.57;76.45
83037;BME280;73029;43.592;1.458;2023-12-20T09:20:09;101139.38;;;9.56;76.43
83037;BME280;73029;43.592;1.458;2023-12-20T09:22:34;101155.22;;;9.56;76.08
83037;BME280;73029;43.592;1.458;2023-12-20T09:25:00;101154.34;;;9.54;76.35
83037;BME280;73029;43.592;1.458;2023-12-20T09:27:27;101159.63;;;9.51;76.01
83037;BME280;73029;43.592;1.458;2023-12-20T09:29:52;101164.91;;;9.53;75.53
83037;BME280;73029;43.592;1.458;2023-12-20T09:32:18;101171.94;;;9.52;76.10
83037;BME280;73029;43.592;1.458;2023-12-20T09:34:45;101175.47;;;9.54;76.39
83037;BME280;73029;43.592;1.458;2023-12-20T09:37:11;101174.59;;;9.58;76.35
83037;BME280;73029;43.592;1.458;2023-12-20T09:39:36;101171.03;;;9.50;76.03
83037;BME280;73029;43.592;1.458;2023-12-20T09:42:06;101184.28;;;9.62;75.20
83037;BME280;73029;43.592;1.458;2023-12-20T09:44:33;101186.03;;;9.62;76.06
83037;BME280;73029;43.592;1.458;2023-12-20T09:47:02;101153.41;;;9.43;74.58
83037;BME280;73029;43.592;1.458;2023-12-20T09:49:29;101180.75;;;9.59;74.49
83037;BME280;73029;43.592;1.458;2023-12-20T09:51:56;101172.81;;;9.51;74.12
83037;BME280;73029;43.592;1.458;2023-12-20T09:54:22;101186.03;;;9.62;74.50
83037;BME280;73029;43.592;1.458;2023-12-20T09:56:48;101186.94;;;9.64;73.73
83037;BME280;73029;43.592;1.458;2023-12-20T09:59:14;101192.22;;;9.65;73.72
83037;BME280;73029;43.592;1.458;2023-12-20T10:01:41;101189.56;;;9.68;73.28
83037;BME280;73029;43.592;1.458;2023-12-20T10:04:08;101197.50;;;9.75;74.28
83037;BME280;73029;43.592;1.458;2023-12-20T10:06:44;101185.19;;;9.74;73.54
83037;BME280;73029;43.592;1.458;2023-12-20T10:09:10;101201.06;;;9.83;73.82
83037;BME280;73029;43.592;1.458;2023-12-20T10:11:37;101172.88;;;9.73;73.59
83037;BME280;73029;43.592;1.458;2023-12-20T10:14:02;101195.78;;;9.86;73.78
83037;BME280;73029;43.592;1.458;2023-12-20T10:16:28;101193.16;;;9.86;73.08
83037;BME280;73029;43.592;1.458;2023-12-20T10:18:54;101164.09;;;9.77;74.06
83037;BME280;73029;43.592;1.458;2023-12-20T10:21:20;101200.19;;;9.93;73.85
83037;BME280;73029;43.592;1.458;2023-12-20T10:23:46;101203.72;;;9.98;73.67
83037;BME280;73029;43.592;1.458;2023-12-20T10:26:22;101197.56;;;9.96;73.33
83037;BME280;73029;43.592;1.458;2023-12-20T10:28:53;101200.22;;;9.99;73.01
83037;BME280;73029;43.592;1.458;2023-12-20T10:31:36;101192.28;;;9.96;73.74
83037;BME280;73029;43.592;1.458;2023-12-20T10:34:04;101195.81;;;9.99;73.46
83037;BME280;73029;43.592;1.458;2023-12-20T10:36:31;101192.28;;;10.05;72.71
83037;BME280;73029;43.592;1.458;2023-12-20T10:38:57;101179.13;;;10.07;72.52
83037;BME280;73029;43.592;1.458;2023-12-20T10:41:28;101159.72;;;10.00;72.30
83037;BME280;73029;43.592;1.458;2023-12-20T10:43:59;101181.75;;;10.14;72.96
83037;BME280;73029;43.592;1.458;2023-12-20T10:46:29;101177.34;;;10.21;71.51
83037;BME280;73029;43.592;1.458;2023-12-20T10:48:56;101174.72;;;10.19;71.24
83037;BME280;73029;43.592;1.458;2023-12-20T10:51:22;101174.72;;;10.19;69.88
83037;BME280;73029;43.592;1.458;2023-12-20T10:53:49;101161.47;;;10.10;69.71
83037;BME280;73029;43.592;1.458;2023-12-20T10:56:16;101167.66;;;10.21;68.25
83037;BME280;73029;43.592;1.458;2023-12-20T10:58:43;101159.72;;;10.21;68.61
83037;BME280;73029;43.592;1.458;2023-12-20T11:01:12;101157.13;;;10.28;67.85
83037;BME280;73029;43.592;1.458;2023-12-20T11:03:51;101154.47;;;10.31;66.98
83037;BME280;73029;43.592;1.458;2023-12-20T11:09:26;101171.22;;;10.51;66.64
83037;BME280;73029;43.592;1.458;2023-12-20T11:12:25;101166.78;;;10.55;66.53
83037;BME280;73029;43.592;1.458;2023-12-20T11:14:54;101155.34;;;10.60;66.70
83037;BME280;73029;43.592;1.458;2023-12-20T11:17:28;101157.97;;;10.69;66.90
83037;BME280;73029;43.592;1.458;2023-12-20T11:22:20;101165.88;;;10.77;66.30
83037;BME280;73029;43.592;1.458;2023-12-20T11:24:47;101152.66;;;10.74;65.25
83037;BME280;73029;43.592;1.458;2023-12-20T11:27:13;101156.22;;;10.70;64.50
83037;BME280;73029;43.592;1.458;2023-12-20T11:29:39;101151.81;;;10.66;64.65
83037;BME280;73029;43.592;1.458;2023-12-20T11:34:51;101160.63;;;10.66;64.26
83037;BME280;73029;43.592;1.458;2023-12-20T11:37:16;101157.09;;;10.66;64.37
83037;BME280;73029;43.592;1.458;2023-12-20T11:39:43;101136.81;;;10.69;64.30
83037;BME280;73029;43.592;1.458;2023-12-20T11:42:09;101137.69;;;10.65;64.52
83037;BME280;73029;43.592;1.458;2023-12-20T11:44:36;101141.19;;;10.83;63.71
83037;BME280;73029;43.592;1.458;2023-12-20T11:47:02;101120.91;;;10.80;64.02
83037;BME280;73029;43.592;1.458;2023-12-20T11:49:27;101141.19;;;10.93;64.13
83037;BME280;73029;43.592;1.458;2023-12-20T11:51:56;101112.94;;;10.97;62.95
83037;BME280;73029;43.592;1.458;2023-12-20T11:54:21;101116.41;;;11.10;62.68
83037;BME280;73029;43.592;1.458;2023-12-20T11:56:47;101104.94;;;11.14;61.28
83037;BME280;73029;43.592;1.458;2023-12-20T11:59:13;101116.34;;;11.25;60.19
83037;BME280;73029;43.592;1.458;2023-12-20T12:01:38;101082.00;;;11.10;60.47
83037;BME280;73029;43.592;1.458;2023-12-20T12:04:07;101115.34;;;11.43;59.03
83037;BME280;73029;43.592;1.458;2023-12-20T12:06:33;101110.91;;;11.48;57.49
83037;BME280;73029;43.592;1.458;2023-12-20T12:08:59;101112.72;;;11.43;58.83
83037;BME280;73029;43.592;1.458;2023-12-20T12:11:24;101106.47;;;11.53;57.59
83037;BME280;73029;43.592;1.458;2023-12-20T12:13:50;101044.91;;;11.20;56.98
83037;BME280;73029;43.592;1.458;2023-12-20T12:16:20;101076.50;;;11.48;57.42
83037;BME280;73029;43.592;1.458;2023-12-20T12:18:45;101094.03;;;11.67;56.89
83037;BME280;73029;43.592;1.458;2023-12-20T12:21:19;101123.97;;;11.83;56.79
83037;BME280;73029;43.592;1.458;2023-12-20T12:23:45;101107.19;;;11.84;55.52
83037;BME280;73029;43.592;1.458;2023-12-20T12:26:11;101119.44;;;12.02;56.30
83037;BME280;73029;43.592;1.458;2023-12-20T12:28:40;101121.09;;;12.15;55.05
83037;BME280;73029;43.592;1.458;2023-12-20T12:31:05;101112.16;;;12.25;54.82
83037;BME280;73029;43.592;1.458;2023-12-20T12:33:31;101119.13;;;12.35;54.93
83037;BME280;73029;43.592;1.458;2023-12-20T12:35:59;101114.63;;;12.45;54.63
83037;BME280;73029;43.592;1.458;2023-12-20T12:38:24;101119.88;;;12.51;53.18
83037;BME280;73029;43.592;1.458;2023-12-20T12:40:50;101137.63;;;12.42;53.78
83037;BME280;73029;43.592;1.458;2023-12-20T12:43:15;101130.75;;;12.21;54.30
83037;BME280;73029;43.592;1.458;2023-12-20T12:45:41;101144.19;;;11.98;53.90
83037;BME280;73029;43.592;1.458;2023-12-20T12:48:07;101159.31;;;11.76;54.99
83037;BME280;73029;43.592;1.458;2023-12-20T12:50:32;101153.25;;;11.57;55.73
83037;BME280;73029;43.592;1.458;2023-12-20T12:52:57;101155.91;;;11.52;55.64
83037;BME280;73029;43.592;1.458;2023-12-20T12:55:23;101163.00;;;11.50;55.51
83037;BME280;73029;43.592;1.458;2023-12-20T12:57:48;101155.03;;;11.49;54.93
83037;BME280;73029;43.592;1.458;2023-12-20T13:00:14;101159.50;;;11.41;55.09